sensor_id;sensor_type;location;lat;lon;timestamp;P1;durP1;ratioP1;P2;durP2;ratioP2
3815;SDS011;1923;48.154;11.536;2023-05-18T00:01:11;6.80;;;3.70;;
3815;SDS011;1923;48.154;11.536;2023-05-18T00:03:40;6.82;;;3.20;;
3815;SDS011;1923;48.154;11.536;2023-05-18T00:06:09;5.95;;;3.40;;
3815;SDS011;1923;48.154;11.536;2023-05-18T00:08:37;6.60;;;4.27;;
3815;SDS011;1923;48.154;11.536;2023-05-18T00:11:06;5.20;;;3.23;;
3815;SDS011;1923;48.154;11.536;2023-05-18T00:13:34;7.03;;;3.27;;
3815;SDS011;1923;48.154;11.536;2023-05-18T00:16:02;6.67;;;4.20;;
3815;SDS011;1923;48.154;11.536;2023-05-18T00:18:30;5.90;;;4.10;;
3815;SDS011;1923;48.154;11.536;2023-05-18T00:20:59;7.37;;;3.80;;
3815;SDS011;1923;48.154;11.536;2023-05-18T00:23:27;11.47;;;4.40;;
3815;SDS011;1923;48.154;11.536;2023-05-18T00:25:58;7.63;;;3.70;;
3815;SDS011;1923;48.154;11.536;2023-05-18T00:28:28;4.90;;;3.60;;
3815;SDS011;1923;48.154;11.536;2023-05-18T00:30:57;6.10;;;3.27;;
3815;SDS011;1923;48.154;11.536;2023-05-18T00:33:25;5.53;;;3.70;;
3815;SDS011;1923;48.154;11.536;2023-05-18T00:35:53;5.20;;;4.13;;
3815;SDS011;1923;48.154;11.536;2023-05-18T00:38:22;6.37;;;3.90;;
3815;SDS011;1923;48.154;11.536;2023-05-18T00:40:50;5.90;;;4.20;;
3815;SDS011;1923;48.154;11.536;2023-05-18T00:43:18;10.60;;;4.67;;
3815;SDS011;1923;48.154;11.536;2023-05-18T00:45:47;7.37;;;4.27;;
3815;SDS011;1923;48.154;11.536;2023-05-18T00:48:15;6.13;;;3.97;;
3815;SDS011;1923;48.154;11.536;2023-05-18T00:50:44;9.93;;;5.20;;
3815;SDS011;1923;48.154;11.536;2023-05-18T00:53:12;7.47;;;4.20;;
3815;SDS011;1923;48.154;11.536;2023-05-18T00:55:40;5.23;;;3.50;;
3815;SDS011;1923;48.154;11.536;2023-05-18T00:58:09;7.07;;;3.77;;
3815;SDS011;1923;48.154;11.536;2023-05-18T01:00:37;8.33;;;4.30;;
3815;SDS011;1923;48.154;11.536;2023-05-18T01:03:07;6.63;;;3.90;;
3815;SDS011;1923;48.154;11.536;2023-05-18T01:05:37;6.60;;;4.10;;
3815;SDS011;1923;48.154;11.536;2023-05-18T01:08:06;9.40;;;4.13;;
3815;SDS011;1923;48.154;11.536;2023-05-18T01:10:35;6.37;;;4.07;;
3815;SDS011;1923;48.154;11.536;2023-05-18T01:13:08;5.10;;;3.97;;
3815;SDS011;1923;48.154;11.536;2023-05-18T01:15:43;7.37;;;4.00;;
3815;SDS011;1923;48.154;11.536;2023-05-18T01:18:18;8.13;;;3.90;;
3815;SDS011;1923;48.154;11.536;2023-05-18T01:20:55;6.13;;;3.70;;
3815;SDS011;1923;48.154;11.536;2023-05-18T01:23:30;5.43;;;3.50;;
3815;SDS011;1923;48.154;11.536;2023-05-18T01:26:30;6.80;;;4.70;;
3815;SDS011;1923;48.154;11.536;2023-05-18T01:29:04;6.40;;;4.10;;
3815;SDS011;1923;48.154;11.536;2023-05-18T01:31:35;6.37;;;4.40;;
3815;SDS011;1923;48.154;11.536;2023-05-18T01:34:05;8.60;;;4.00;;
3815;SDS011;1923;48.154;11.536;2023-05-18T01:36:33;7.57;;;3.73;;
3815;SDS011;1923;48.154;11.536;2023-05-18T01:39:01;6.20;;;3.67;;
3815;SDS011;1923;48.154;11.536;2023-05-18T01:41:32;7.53;;;4.40;;
3815;SDS011;1923;48.154;11.536;2023-05-18T01:44:05;6.23;;;4.13;;
3815;SDS011;1923;48.154;11.536;2023-05-18T01:46:48;8.67;;;4.50;;
3815;SDS011;1923;48.154;11.536;2023-05-18T01:49:34;7.57;;;4.03;;
3815;SDS011;1923;48.154;11.536;2023-05-18T01:52:06;8.23;;;4.20;;
3815;SDS011;1923;48.154;11.536;2023-05-18T01:54:37;9.80;;;4.30;;
3815;SDS011;1923;48.154;11.536;2023-05-18T01:57:10;5.83;;;4.07;;
3815;SDS011;1923;48.154;11.536;2023-05-18T01:59:39;7.07;;;4.00;;
3815;SDS011;1923;48.154;11.536;2023-05-18T02:02:07;6.00;;;3.80;;
3815;SDS011;1923;48.154;11.536;2023-05-18T02:04:36;4.87;;;3.47;;
3815;SDS011;1923;48.154;11.536;2023-05-18T02:07:04;6.57;;;4.20;;
3815;SDS011;1923;48.154;11.536;2023-05-18T02:09:32;8.10;;;4.37;;
3815;SDS011;1923;48.154;11.536;2023-05-18T02:12:00;6.97;;;3.93;;
3815;SDS011;1923;48.154;11.536;2023-05-18T02:14:29;8.97;;;4.20;;
3815;SDS011;1923;48.154;11.536;2023-05-18T02:16:59;9.00;;;3.90;;
3815;SDS011;1923;48.154;11.536;2023-05-18T02:19:26;8.17;;;4.10;;
3815;SDS011;1923;48.154;11.536;2023-05-18T02:21:56;4.57;;;3.67;;
3815;SDS011;1923;48.154;11.536;2023-05-18T02:24:24;12.60;;;5.80;;
3815;SDS011;1923;48.154;11.536;2023-05-18T02:26:52;11.17;;;5.10;;
3815;SDS011;1923;48.154;11.536;2023-05-18T02:29:20;9.13;;;4.20;;
3815;SDS011;1923;48.154;11.536;2023-05-18T02:31:49;7.90;;;4.30;;
3815;SDS011;1923;48.154;11.536;2023-05-18T02:34:18;7.13;;;4.20;;
3815;SDS011;1923;48.154;11.536;2023-05-18T02:36:47;8.53;;;5.27;;
3815;SDS011;1923;48.154;11.536;2023-05-18T02:39:15;7.07;;;4.37;;
3815;SDS011;1923;48.154;11.536;2023-05-18T02:41:43;6.77;;;4.40;;
3815;SDS011;1923;48.154;11.536;2023-05-18T02:44:11;8.37;;;4.87;;
3815;SDS011;1923;48.154;11.536;2023-05-18T02:46:39;9.60;;;4.37;;
3815;SDS011;1923;48.154;11.536;2023-05-18T02:49:09;11.97;;;4.93;;
3815;SDS011;1923;48.154;11.536;2023-05-18T02:51:37;6.70;;;4.57;;
3815;SDS011;1923;48.154;11.536;2023-05-18T02:54:05;7.27;;;4.33;;
3815;SDS011;1923;48.154;11.536;2023-05-18T02:56:33;9.47;;;4.37;;
3815;SDS011;1923;48.154;11.536;2023-05-18T02:59:01;7.70;;;4.43;;
3815;SDS011;1923;48.154;11.536;2023-05-18T03:01:31;5.43;;;4.00;;
3815;SDS011;1923;48.154;11.536;2023-05-18T03:04:02;7.20;;;4.67;;
3815;SDS011;1923;48.154;11.536;2023-05-18T03:06:32;7.43;;;4.50;;
3815;SDS011;1923;48.154;11.536;2023-05-18T03:09:01;7.80;;;4.90;;
3815;SDS011;1923;48.154;11.536;2023-05-18T03:11:29;7.10;;;5.00;;
3815;SDS011;1923;48.154;11.536;2023-05-18T03:13:57;8.23;;;5.20;;
3815;SDS011;1923;48.154;11.536;2023-05-18T03:16:25;9.40;;;5.33;;
3815;SDS011;1923;48.154;11.536;2023-05-18T03:18:54;7.87;;;5.00;;
3815;SDS011;1923;48.154;11.536;2023-05-18T03:21:24;8.40;;;5.30;;
3815;SDS011;1923;48.154;11.536;2023-05-18T03:24:00;7.60;;;5.30;;
3815;SDS011;1923;48.154;11.536;2023-05-18T03:26:29;10.93;;;6.17;;
3815;SDS011;1923;48.154;11.536;2023-05-18T03:28:57;8.90;;;5.37;;
3815;SDS011;1923;48.154;11.536;2023-05-18T03:31:26;9.30;;;6.30;;
3815;SDS011;1923;48.154;11.536;2023-05-18T03:33:54;11.60;;;5.60;;
3815;SDS011;1923;48.154;11.536;2023-05-18T03:36:22;13.67;;;6.87;;
3815;SDS011;1923;48.154;11.536;2023-05-18T03:38:53;8.50;;;4.73;;
3815;SDS011;1923;48.154;11.536;2023-05-18T03:41:22;10.93;;;5.60;;
3815;SDS011;1923;48.154;11.536;2023-05-18T03:43:50;12.37;;;5.80;;
3815;SDS011;1923;48.154;11.536;2023-05-18T03:46:18;9.13;;;5.17;;
3815;SDS011;1923;48.154;11.536;2023-05-18T03:48:47;8.13;;;5.50;;
3815;SDS011;1923;48.154;11.536;2023-05-18T03:51:15;10.50;;;5.67;;
3815;SDS011;1923;48.154;11.536;2023-05-18T03:53:43;9.47;;;5.40;;
3815;SDS011;1923;48.154;11.536;2023-05-18T03:56:10;10.30;;;6.20;;
3815;SDS011;1923;48.154;11.536;2023-05-18T03:58:40;10.33;;;6.50;;
3815;SDS011;1923;48.154;11.536;2023-05-18T04:01:09;10.37;;;6.10;;
3815;SDS011;1923;48.154;11.536;2023-05-18T04:03:37;13.30;;;7.43;;
3815;SDS011;1923;48.154;11.536;2023-05-18T04:06:06;13.37;;;6.30;;
3815;SDS011;1923;48.154;11.536;2023-05-18T04:08:35;12.27;;;6.53;;
3815;SDS011;1923;48.154;11.536;2023-05-18T04:11:03;12.23;;;6.90;;
3815;SDS011;1923;48.154;11.536;2023-05-18T04:13:32;8.87;;;6.53;;
3815;SDS011;1923;48.154;11.536;2023-05-18T04:16:01;8.87;;;5.70;;
3815;SDS011;1923;48.154;11.536;2023-05-18T04:18:30;10.83;;;6.07;;
3815;SDS011;1923;48.154;11.536;2023-05-18T04:20:58;10.43;;;6.10;;
3815;SDS011;1923;48.154;11.536;2023-05-18T04:23:27;12.83;;;6.90;;
3815;SDS011;1923;48.154;11.536;2023-05-18T04:25:55;10.00;;;5.93;;
3815;SDS011;1923;48.154;11.536;2023-05-18T04:28:23;11.10;;;6.90;;
3815;SDS011;1923;48.154;11.536;2023-05-18T04:30:51;10.47;;;6.50;;
3815;SDS011;1923;48.154;11.536;2023-05-18T04:33:21;10.37;;;5.97;;
3815;SDS011;1923;48.154;11.536;2023-05-18T04:35:49;11.63;;;6.93;;
3815;SDS011;1923;48.154;11.536;2023-05-18T04:38:20;12.90;;;6.60;;
3815;SDS011;1923;48.154;11.536;2023-05-18T04:40:48;10.10;;;5.40;;
3815;SDS011;1923;48.154;11.536;2023-05-18T04:43:16;8.47;;;6.60;;
3815;SDS011;1923;48.154;11.536;2023-05-18T04:45:45;7.60;;;5.60;;
3815;SDS011;1923;48.154;11.536;2023-05-18T04:48:15;9.47;;;6.10;;
3815;SDS011;1923;48.154;11.536;2023-05-18T04:50:45;11.00;;;7.10;;
3815;SDS011;1923;48.154;11.536;2023-05-18T04:53:13;9.13;;;5.37;;
3815;SDS011;1923;48.154;11.536;2023-05-18T04:55:43;8.33;;;6.30;;
3815;SDS011;1923;48.154;11.536;2023-05-18T04:58:11;9.57;;;6.13;;
3815;SDS011;1923;48.154;11.536;2023-05-18T05:00:40;8.67;;;5.03;;
3815;SDS011;1923;48.154;11.536;2023-05-18T05:03:08;8.90;;;5.20;;
3815;SDS011;1923;48.154;11.536;2023-05-18T05:05:36;9.00;;;5.20;;
3815;SDS011;1923;48.154;11.536;2023-05-18T05:08:06;9.90;;;6.13;;
3815;SDS011;1923;48.154;11.536;2023-05-18T05:10:34;12.03;;;6.20;;
3815;SDS011;1923;48.154;11.536;2023-05-18T05:13:02;9.77;;;6.43;;
3815;SDS011;1923;48.154;11.536;2023-05-18T05:15:30;8.60;;;5.90;;
3815;SDS011;1923;48.154;11.536;2023-05-18T05:17:59;8.93;;;5.70;;
3815;SDS011;1923;48.154;11.536;2023-05-18T05:20:27;8.20;;;4.97;;
3815;SDS011;1923;48.154;11.536;2023-05-18T05:22:55;8.50;;;5.23;;
3815;SDS011;1923;48.154;11.536;2023-05-18T05:25:25;9.07;;;5.40;;
3815;SDS011;1923;48.154;11.536;2023-05-18T05:27:53;8.20;;;5.00;;
3815;SDS011;1923;48.154;11.536;2023-05-18T05:30:21;8.37;;;5.50;;
3815;SDS011;1923;48.154;11.536;2023-05-18T05:32:49;9.20;;;4.80;;
3815;SDS011;1923;48.154;11.536;2023-05-18T05:35:17;8.07;;;5.37;;
3815;SDS011;1923;48.154;11.536;2023-05-18T05:37:45;7.70;;;5.20;;
3815;SDS011;1923;48.154;11.536;2023-05-18T05:40:13;7.70;;;5.40;;
3815;SDS011;1923;48.154;11.536;2023-05-18T05:42:43;6.87;;;5.27;;
3815;SDS011;1923;48.154;11.536;2023-05-18T05:45:11;7.57;;;5.50;;
3815;SDS011;1923;48.154;11.536;2023-05-18T05:47:39;8.70;;;4.73;;
3815;SDS011;1923;48.154;11.536;2023-05-18T05:50:07;9.30;;;5.50;;
3815;SDS011;1923;48.154;11.536;2023-05-18T05:52:35;9.30;;;4.70;;
3815;SDS011;1923;48.154;11.536;2023-05-18T05:55:03;8.03;;;4.97;;
3815;SDS011;1923;48.154;11.536;2023-05-18T05:57:32;8.03;;;5.20;;
3815;SDS011;1923;48.154;11.536;2023-05-18T06:00:01;6.80;;;4.80;;
3815;SDS011;1923;48.154;11.536;2023-05-18T06:02:30;9.30;;;5.30;;
3815;SDS011;1923;48.154;11.536;2023-05-18T06:04:59;7.43;;;5.23;;
3815;SDS011;1923;48.154;11.536;2023-05-18T06:07:27;7.70;;;5.03;;
3815;SDS011;1923;48.154;11.536;2023-05-18T06:09:56;6.60;;;4.80;;
3815;SDS011;1923;48.154;11.536;2023-05-18T06:12:24;8.10;;;4.50;;
3815;SDS011;1923;48.154;11.536;2023-05-18T06:14:52;8.50;;;5.50;;
3815;SDS011;1923;48.154;11.536;2023-05-18T06:17:24;7.27;;;4.97;;
3815;SDS011;1923;48.154;11.536;2023-05-18T06:19:52;7.60;;;4.60;;
3815;SDS011;1923;48.154;11.536;2023-05-18T06:22:20;11.00;;;4.77;;
3815;SDS011;1923;48.154;11.536;2023-05-18T06:24:49;6.30;;;4.43;;
3815;SDS011;1923;48.154;11.536;2023-05-18T06:27:18;7.13;;;4.33;;
3815;SDS011;1923;48.154;11.536;2023-05-18T06:29:45;9.60;;;5.10;;
3815;SDS011;1923;48.154;11.536;2023-05-18T06:32:13;10.50;;;5.20;;
3815;SDS011;1923;48.154;11.536;2023-05-18T06:34:43;7.73;;;4.87;;
3815;SDS011;1923;48.154;11.536;2023-05-18T06:37:12;6.87;;;4.53;;
3815;SDS011;1923;48.154;11.536;2023-05-18T06:39:40;7.30;;;4.70;;
3815;SDS011;1923;48.154;11.536;2023-05-18T06:42:08;5.63;;;3.83;;
3815;SDS011;1923;48.154;11.536;2023-05-18T06:44:36;4.50;;;4.03;;
3815;SDS011;1923;48.154;11.536;2023-05-18T06:47:05;11.07;;;4.30;;
3815;SDS011;1923;48.154;11.536;2023-05-18T06:49:33;10.77;;;5.40;;
3815;SDS011;1923;48.154;11.536;2023-05-18T06:52:03;7.00;;;4.67;;
3815;SDS011;1923;48.154;11.536;2023-05-18T06:54:32;5.67;;;4.43;;
3815;SDS011;1923;48.154;11.536;2023-05-18T06:57:00;7.57;;;4.23;;
3815;SDS011;1923;48.154;11.536;2023-05-18T06:59:28;6.83;;;4.87;;
3815;SDS011;1923;48.154;11.536;2023-05-18T07:01:56;9.67;;;4.27;;
3815;SDS011;1923;48.154;11.536;2023-05-18T07:04:24;5.70;;;3.90;;
3815;SDS011;1923;48.154;11.536;2023-05-18T07:06:52;6.50;;;4.13;;
3815;SDS011;1923;48.154;11.536;2023-05-18T07:09:22;7.60;;;4.40;;
3815;SDS011;1923;48.154;11.536;2023-05-18T07:11:51;6.97;;;4.20;;
3815;SDS011;1923;48.154;11.536;2023-05-18T07:14:19;6.10;;;4.40;;
3815;SDS011;1923;48.154;11.536;2023-05-18T07:16:47;9.70;;;4.80;;
3815;SDS011;1923;48.154;11.536;2023-05-18T07:19:15;7.50;;;4.57;;
3815;SDS011;1923;48.154;11.536;2023-05-18T07:21:43;6.17;;;4.53;;
3815;SDS011;1923;48.154;11.536;2023-05-18T07:24:11;7.47;;;4.40;;
3815;SDS011;1923;48.154;11.536;2023-05-18T07:26:41;8.17;;;5.53;;
3815;SDS011;1923;48.154;11.536;2023-05-18T07:29:09;5.10;;;3.80;;
3815;SDS011;1923;48.154;11.536;2023-05-18T07:31:37;7.70;;;4.03;;
3815;SDS011;1923;48.154;11.536;2023-05-18T07:34:06;4.73;;;3.67;;
3815;SDS011;1923;48.154;11.536;2023-05-18T07:36:34;5.50;;;3.33;;
3815;SDS011;1923;48.154;11.536;2023-05-18T07:39:02;6.40;;;3.90;;
3815;SDS011;1923;48.154;11.536;2023-05-18T07:41:31;6.43;;;3.70;;
3815;SDS011;1923;48.154;11.536;2023-05-18T07:44:00;8.13;;;3.50;;
3815;SDS011;1923;48.154;11.536;2023-05-18T07:46:28;4.60;;;3.23;;
3815;SDS011;1923;48.154;11.536;2023-05-18T07:48:56;7.63;;;3.30;;
3815;SDS011;1923;48.154;11.536;2023-05-18T07:51:24;11.30;;;3.40;;
3815;SDS011;1923;48.154;11.536;2023-05-18T07:53:52;4.73;;;3.00;;
3815;SDS011;1923;48.154;11.536;2023-05-18T07:56:20;4.13;;;2.90;;
3815;SDS011;1923;48.154;11.536;2023-05-18T07:58:49;5.53;;;3.30;;
3815;SDS011;1923;48.154;11.536;2023-05-18T08:01:18;6.60;;;2.60;;
3815;SDS011;1923;48.154;11.536;2023-05-18T08:03:47;4.60;;;3.50;;
3815;SDS011;1923;48.154;11.536;2023-05-18T08:06:15;4.80;;;3.20;;
3815;SDS011;1923;48.154;11.536;2023-05-18T08:08:43;4.33;;;3.13;;
3815;SDS011;1923;48.154;11.536;2023-05-18T08:11:12;5.83;;;3.40;;
3815;SDS011;1923;48.154;11.536;2023-05-18T08:13:40;6.37;;;3.20;;
3815;SDS011;1923;48.154;11.536;2023-05-18T08:16:08;4.77;;;3.00;;
3815;SDS011;1923;48.154;11.536;2023-05-18T08:18:39;4.10;;;3.60;;
3815;SDS011;1923;48.154;11.536;2023-05-18T08:21:07;10.67;;;2.80;;
3815;SDS011;1923;48.154;11.536;2023-05-18T08:23:35;5.00;;;3.10;;
3815;SDS011;1923;48.154;11.536;2023-05-18T08:26:04;8.10;;;3.87;;
3815;SDS011;1923;48.154;11.536;2023-05-18T08:28:33;3.70;;;2.40;;
3815;SDS011;1923;48.154;11.536;2023-05-18T08:31:01;5.00;;;2.23;;
3815;SDS011;1923;48.154;11.536;2023-05-18T08:33:29;7.50;;;2.70;;
3815;SDS011;1923;48.154;11.536;2023-05-18T08:36:00;4.97;;;3.00;;
3815;SDS011;1923;48.154;11.536;2023-05-18T08:38:28;4.33;;;2.83;;
3815;SDS011;1923;48.154;11.536;2023-05-18T08:40:58;5.03;;;2.70;;
3815;SDS011;1923;48.154;11.536;2023-05-18T08:43:32;5.23;;;2.67;;
3815;SDS011;1923;48.154;11.536;2023-05-18T08:46:06;6.30;;;3.10;;
3815;SDS011;1923;48.154;11.536;2023-05-18T08:48:40;4.20;;;2.43;;
3815;SDS011;1923;48.154;11.536;2023-05-18T08:51:12;3.93;;;2.50;;
3815;SDS011;1923;48.154;11.536;2023-05-18T08:53:46;5.47;;;2.50;;
3815;SDS011;1923;48.154;11.536;2023-05-18T08:56:19;4.90;;;2.50;;
3815;SDS011;1923;48.154;11.536;2023-05-18T08:58:51;4.87;;;2.87;;
3815;SDS011;1923;48.154;11.536;2023-05-18T09:01:22;3.77;;;2.63;;
3815;SDS011;1923;48.154;11.536;2023-05-18T09:03:54;5.97;;;2.80;;
3815;SDS011;1923;48.154;11.536;2023-05-18T09:06:25;4.77;;;2.63;;
3815;SDS011;1923;48.154;11.536;2023-05-18T09:08:54;5.70;;;2.40;;
3815;SDS011;1923;48.154;11.536;2023-05-18T09:11:24;3.80;;;2.40;;
3815;SDS011;1923;48.154;11.536;2023-05-18T09:13:53;3.97;;;2.40;;
3815;SDS011;1923;48.154;11.536;2023-05-18T09:16:21;2.10;;;1.90;;
3815;SDS011;1923;48.154;11.536;2023-05-18T09:18:50;4.60;;;2.33;;
3815;SDS011;1923;48.154;11.536;2023-05-18T09:21:18;4.47;;;2.30;;
3815;SDS011;1923;48.154;11.536;2023-05-18T09:23:47;5.37;;;2.47;;
3815;SDS011;1923;48.154;11.536;2023-05-18T09:26:17;2.93;;;1.93;;
3815;SDS011;1923;48.154;11.536;2023-05-18T09:28:50;4.70;;;2.57;;
3815;SDS011;1923;48.154;11.536;2023-05-18T09:31:20;5.20;;;2.60;;
3815;SDS011;1923;48.154;11.536;2023-05-18T09:33:50;4.83;;;2.17;;
3815;SDS011;1923;48.154;11.536;2023-05-18T09:36:22;5.57;;;2.27;;
3815;SDS011;1923;48.154;11.536;2023-05-18T09:38:55;3.87;;;2.30;;
3815;SDS011;1923;48.154;11.536;2023-05-18T09:41:25;4.50;;;2.43;;
3815;SDS011;1923;48.154;11.536;2023-05-18T09:43:53;4.70;;;3.20;;
3815;SDS011;1923;48.154;11.536;2023-05-18T09:46:21;5.30;;;2.97;;
3815;SDS011;1923;48.154;11.536;2023-05-18T09:48:50;3.93;;;2.47;;
3815;SDS011;1923;48.154;11.536;2023-05-18T09:51:21;4.33;;;2.70;;
3815;SDS011;1923;48.154;11.536;2023-05-18T09:53:52;4.43;;;2.90;;
3815;SDS011;1923;48.154;11.536;2023-05-18T09:56:22;12.53;;;3.27;;
3815;SDS011;1923;48.154;11.536;2023-05-18T09:58:52;6.63;;;3.07;;
3815;SDS011;1923;48.154;11.536;2023-05-18T10:01:20;5.43;;;2.73;;
3815;SDS011;1923;48.154;11.536;2023-05-18T10:03:49;3.73;;;2.70;;
3815;SDS011;1923;48.154;11.536;2023-05-18T10:06:18;7.77;;;3.23;;
3815;SDS011;1923;48.154;11.536;2023-05-18T10:08:57;4.33;;;2.40;;
3815;SDS011;1923;48.154;11.536;2023-05-18T10:11:29;7.97;;;2.57;;
3815;SDS011;1923;48.154;11.536;2023-05-18T10:13:58;4.80;;;3.10;;
3815;SDS011;1923;48.154;11.536;2023-05-18T10:16:26;5.03;;;3.20;;
3815;SDS011;1923;48.154;11.536;2023-05-18T10:18:55;9.80;;;3.37;;
3815;SDS011;1923;48.154;11.536;2023-05-18T10:21:23;5.13;;;3.17;;
3815;SDS011;1923;48.154;11.536;2023-05-18T10:23:57;4.23;;;2.77;;
3815;SDS011;1923;48.154;11.536;2023-05-18T10:26:29;4.80;;;2.63;;
3815;SDS011;1923;48.154;11.536;2023-05-18T10:29:01;10.20;;;3.40;;
3815;SDS011;1923;48.154;11.536;2023-05-18T10:31:31;5.63;;;2.60;;
3815;SDS011;1923;48.154;11.536;2023-05-18T10:34:02;5.97;;;2.83;;
3815;SDS011;1923;48.154;11.536;2023-05-18T10:36:31;5.50;;;2.63;;
3815;SDS011;1923;48.154;11.536;2023-05-18T10:39:02;2.80;;;2.50;;
3815;SDS011;1923;48.154;11.536;2023-05-18T10:41:31;5.55;;;2.38;;
3815;SDS011;1923;48.154;11.536;2023-05-18T10:44:01;8.73;;;2.30;;
3815;SDS011;1923;48.154;11.536;2023-05-18T10:46:30;6.90;;;2.67;;
3815;SDS011;1923;48.154;11.536;2023-05-18T10:49:00;5.43;;;1.90;;
3815;SDS011;1923;48.154;11.536;2023-05-18T10:51:30;2.40;;;1.90;;
3815;SDS011;1923;48.154;11.536;2023-05-18T10:54:09;3.00;;;2.10;;
3815;SDS011;1923;48.154;11.536;2023-05-18T10:56:41;5.93;;;2.40;;
3815;SDS011;1923;48.154;11.536;2023-05-18T10:59:12;4.50;;;2.90;;
3815;SDS011;1923;48.154;11.536;2023-05-18T11:01:43;4.33;;;2.53;;
3815;SDS011;1923;48.154;11.536;2023-05-18T11:04:13;1.77;;;1.63;;
3815;SDS011;1923;48.154;11.536;2023-05-18T11:06:41;4.30;;;2.58;;
3815;SDS011;1923;48.154;11.536;2023-05-18T11:09:14;3.28;;;2.20;;
3815;SDS011;1923;48.154;11.536;2023-05-18T11:11:49;5.13;;;3.10;;
3815;SDS011;1923;48.154;11.536;2023-05-18T11:14:28;4.60;;;2.40;;
3815;SDS011;1923;48.154;11.536;2023-05-18T11:22:46;4.20;;;2.47;;
3815;SDS011;1923;48.154;11.536;2023-05-18T11:28:14;5.07;;;2.38;;
3815;SDS011;1923;48.154;11.536;2023-05-18T11:30:46;2.97;;;2.27;;
3815;SDS011;1923;48.154;11.536;2023-05-18T11:33:21;4.67;;;2.67;;
3815;SDS011;1923;48.154;11.536;2023-05-18T11:35:54;3.47;;;2.28;;
3815;SDS011;1923;48.154;11.536;2023-05-18T11:38:49;4.15;;;2.00;;
3815;SDS011;1923;48.154;11.536;2023-05-18T11:41:27;3.25;;;1.98;;
3815;SDS011;1923;48.154;11.536;2023-05-18T11:44:07;5.03;;;3.23;;
3815;SDS011;1923;48.154;11.536;2023-05-18T11:46:52;2.27;;;1.77;;
3815;SDS011;1923;48.154;11.536;2023-05-18T11:49:22;5.90;;;2.57;;
3815;SDS011;1923;48.154;11.536;2023-05-18T11:51:55;2.70;;;1.97;;
3815;SDS011;1923;48.154;11.536;2023-05-18T11:54:24;2.73;;;1.93;;
3815;SDS011;1923;48.154;11.536;2023-05-18T11:56:54;4.80;;;1.90;;
3815;SDS011;1923;48.154;11.536;2023-05-18T11:59:31;4.43;;;3.10;;
3815;SDS011;1923;48.154;11.536;2023-05-18T12:02:01;4.40;;;1.80;;
3815;SDS011;1923;48.154;11.536;2023-05-18T12:04:30;5.67;;;2.30;;
3815;SDS011;1923;48.154;11.536;2023-05-18T12:07:03;4.70;;;2.60;;
3815;SDS011;1923;48.154;11.536;2023-05-18T12:09:31;5.22;;;2.75;;
3815;SDS011;1923;48.154;11.536;2023-05-18T12:12:01;4.83;;;2.90;;
3815;SDS011;1923;48.154;11.536;2023-05-18T12:14:30;4.53;;;2.40;;
3815;SDS011;1923;48.154;11.536;2023-05-18T12:17:01;5.67;;;2.13;;
3815;SDS011;1923;48.154;11.536;2023-05-18T12:19:35;4.27;;;2.27;;
3815;SDS011;1923;48.154;11.536;2023-05-18T12:22:04;2.63;;;1.87;;
3815;SDS011;1923;48.154;11.536;2023-05-18T12:24:32;2.50;;;1.93;;
3815;SDS011;1923;48.154;11.536;2023-05-18T12:27:01;2.77;;;2.13;;
3815;SDS011;1923;48.154;11.536;2023-05-18T12:29:33;2.30;;;2.03;;
3815;SDS011;1923;48.154;11.536;2023-05-18T12:32:04;2.57;;;1.80;;
3815;SDS011;1923;48.154;11.536;2023-05-18T12:34:33;4.67;;;2.23;;
3815;SDS011;1923;48.154;11.536;2023-05-18T12:37:02;3.23;;;2.33;;
3815;SDS011;1923;48.154;11.536;2023-05-18T12:39:30;2.10;;;1.90;;
3815;SDS011;1923;48.154;11.536;2023-05-18T12:44:46;5.37;;;2.53;;
3815;SDS011;1923;48.154;11.536;2023-05-18T12:47:16;3.33;;;2.20;;
3815;SDS011;1923;48.154;11.536;2023-05-18T12:49:47;4.57;;;2.30;;
3815;SDS011;1923;48.154;11.536;2023-05-18T12:52:15;2.83;;;2.10;;
3815;SDS011;1923;48.154;11.536;2023-05-18T12:54:47;3.97;;;1.83;;
3815;SDS011;1923;48.154;11.536;2023-05-18T12:57:25;2.53;;;2.13;;
3815;SDS011;1923;48.154;11.536;2023-05-18T12:59:56;4.30;;;3.00;;
3815;SDS011;1923;48.154;11.536;2023-05-18T13:02:26;2.67;;;1.93;;
3815;SDS011;1923;48.154;11.536;2023-05-18T13:05:00;3.83;;;1.97;;
3815;SDS011;1923;48.154;11.536;2023-05-18T13:07:36;3.80;;;2.70;;
3815;SDS011;1923;48.154;11.536;2023-05-18T13:10:06;2.77;;;2.10;;
3815;SDS011;1923;48.154;11.536;2023-05-18T13:12:43;4.10;;;2.40;;
3815;SDS011;1923;48.154;11.536;2023-05-18T13:15:13;4.13;;;2.03;;
3815;SDS011;1923;48.154;11.536;2023-05-18T13:17:55;5.17;;;1.73;;
3815;SDS011;1923;48.154;11.536;2023-05-18T13:20:30;3.13;;;1.90;;
3815;SDS011;1923;48.154;11.536;2023-05-18T13:23:02;2.87;;;2.17;;
3815;SDS011;1923;48.154;11.536;2023-05-18T13:25:33;4.50;;;2.70;;
3815;SDS011;1923;48.154;11.536;2023-05-18T13:28:03;6.73;;;2.60;;
3815;SDS011;1923;48.154;11.536;2023-05-18T13:30:31;7.60;;;2.53;;
3815;SDS011;1923;48.154;11.536;2023-05-18T13:32:59;10.13;;;2.43;;
3815;SDS011;1923;48.154;11.536;2023-05-18T13:35:27;7.05;;;2.40;;
3815;SDS011;1923;48.154;11.536;2023-05-18T13:37:56;1.63;;;1.40;;
3815;SDS011;1923;48.154;11.536;2023-05-18T13:40:24;4.60;;;2.20;;
3815;SDS011;1923;48.154;11.536;2023-05-18T13:42:52;3.17;;;1.93;;
3815;SDS011;1923;48.154;11.536;2023-05-18T13:45:22;3.17;;;1.77;;
3815;SDS011;1923;48.154;11.536;2023-05-18T13:47:50;4.30;;;1.77;;
3815;SDS011;1923;48.154;11.536;2023-05-18T13:50:19;4.90;;;2.20;;
3815;SDS011;1923;48.154;11.536;2023-05-18T13:52:48;6.30;;;2.13;;
3815;SDS011;1923;48.154;11.536;2023-05-18T13:55:16;3.77;;;2.30;;
3815;SDS011;1923;48.154;11.536;2023-05-18T13:57:45;3.13;;;1.80;;
3815;SDS011;1923;48.154;11.536;2023-05-18T14:00:13;2.23;;;1.80;;
3815;SDS011;1923;48.154;11.536;2023-05-18T14:02:44;4.18;;;2.00;;
3815;SDS011;1923;48.154;11.536;2023-05-18T14:05:12;5.43;;;2.00;;
3815;SDS011;1923;48.154;11.536;2023-05-18T14:07:41;3.83;;;2.10;;
3815;SDS011;1923;48.154;11.536;2023-05-18T14:10:11;4.13;;;1.80;;
3815;SDS011;1923;48.154;11.536;2023-05-18T14:12:39;3.40;;;2.60;;
3815;SDS011;1923;48.154;11.536;2023-05-18T14:15:09;8.23;;;2.23;;
3815;SDS011;1923;48.154;11.536;2023-05-18T14:17:39;2.43;;;2.20;;
3815;SDS011;1923;48.154;11.536;2023-05-18T14:20:09;8.13;;;2.00;;
3815;SDS011;1923;48.154;11.536;2023-05-18T14:22:38;2.97;;;2.23;;
3815;SDS011;1923;48.154;11.536;2023-05-18T14:25:07;3.37;;;2.20;;
3815;SDS011;1923;48.154;11.536;2023-05-18T14:27:35;4.60;;;2.20;;
3815;SDS011;1923;48.154;11.536;2023-05-18T14:30:04;2.80;;;2.33;;
3815;SDS011;1923;48.154;11.536;2023-05-18T14:32:33;3.70;;;2.10;;
3815;SDS011;1923;48.154;11.536;2023-05-18T14:35:01;3.37;;;1.93;;
3815;SDS011;1923;48.154;11.536;2023-05-18T14:37:31;4.73;;;2.63;;
3815;SDS011;1923;48.154;11.536;2023-05-18T14:39:59;7.60;;;2.17;;
3815;SDS011;1923;48.154;11.536;2023-05-18T14:42:27;3.43;;;2.30;;
3815;SDS011;1923;48.154;11.536;2023-05-18T14:44:56;6.10;;;2.67;;
3815;SDS011;1923;48.154;11.536;2023-05-18T14:47:24;5.97;;;1.90;;
3815;SDS011;1923;48.154;11.536;2023-05-18T14:49:52;4.73;;;2.10;;
3815;SDS011;1923;48.154;11.536;2023-05-18T14:52:20;6.27;;;2.57;;
3815;SDS011;1923;48.154;11.536;2023-05-18T14:54:49;2.67;;;2.17;;
3815;SDS011;1923;48.154;11.536;2023-05-18T14:57:18;2.30;;;2.00;;
3815;SDS011;1923;48.154;11.536;2023-05-18T14:59:46;2.37;;;2.03;;
3815;SDS011;1923;48.154;11.536;2023-05-18T15:02:14;7.10;;;3.17;;
3815;SDS011;1923;48.154;11.536;2023-05-18T15:04:43;5.70;;;2.60;;
3815;SDS011;1923;48.154;11.536;2023-05-18T15:07:11;4.78;;;2.33;;
3815;SDS011;1923;48.154;11.536;2023-05-18T15:09:39;3.83;;;1.90;;
3815;SDS011;1923;48.154;11.536;2023-05-18T15:12:09;3.53;;;2.60;;
3815;SDS011;1923;48.154;11.536;2023-05-18T15:14:37;3.00;;;2.27;;
3815;SDS011;1923;48.154;11.536;2023-05-18T15:17:05;5.23;;;2.70;;
3815;SDS011;1923;48.154;11.536;2023-05-18T15:19:33;3.67;;;2.17;;
3815;SDS011;1923;48.154;11.536;2023-05-18T15:22:03;2.83;;;2.17;;
3815;SDS011;1923;48.154;11.536;2023-05-18T15:24:31;2.77;;;2.37;;
3815;SDS011;1923;48.154;11.536;2023-05-18T15:26:59;2.00;;;1.80;;